sensor_id;sensor_type;location;lat;lon;timestamp;temperature;humidity
42187;DHT22;27858;51.414;0.018;2022-12-20T00:01:20;13.10;99.90
42187;DHT22;27858;51.414;0.018;2022-12-20T00:03:52;13.20;99.90
42187;DHT22;27858;51.414;0.018;2022-12-20T00:06:20;13.10;99.90
42187;DHT22;27858;51.414;0.018;2022-12-20T00:08:52;13.40;99.90
42187;DHT22;27858;51.414;0.018;2022-12-20T00:11:19;13.20;99.90
42187;DHT22;27858;51.414;0.018;2022-12-20T00:13:46;13.40;99.90
42187;DHT22;27858;51.414;0.018;2022-12-20T00:16:19;13.20;99.90
42187;DHT22;27858;51.414;0.018;2022-12-20T00:18:49;13.30;99.90
42187;DHT22;27858;51.414;0.018;2022-12-20T00:21:16;13.10;99.90
42187;DHT22;27858;51.414;0.018;2022-12-20T00:23:43;13.30;99.90
42187;DHT22;27858;51.414;0.018;2022-12-20T00:26:12;13.30;99.90
42187;DHT22;27858;51.414;0.018;2022-12-20T00:28:40;13.20;99.90
42187;DHT22;27858;51.414;0.018;2022-12-20T00:31:10;12.80;99.90
42187;DHT22;27858;51.414;0.018;2022-12-20T00:33:38;12.80;99.90
42187;DHT22;27858;51.414;0.018;2022-12-20T00:36:06;12.90;99.90
42187;DHT22;27858;51.414;0.018;2022-12-20T00:38:33;12.80;99.90
42187;DHT22;27858;51.414;0.018;2022-12-20T00:41:06;13.30;99.90
42187;DHT22;27858;51.414;0.018;2022-12-20T00:43:33;13.00;99.90
42187;DHT22;27858;51.414;0.018;2022-12-20T00:46:01;12.80;99.90
42187;DHT22;27858;51.414;0.018;2022-12-20T00:48:29;12.80;99.90
42187;DHT22;27858;51.414;0.018;2022-12-20T00:51:00;12.80;99.90
42187;DHT22;27858;51.414;0.018;2022-12-20T00:53:28;13.10;99.90
42187;DHT22;27858;51.414;0.018;2022-12-20T00:55:55;12.80;99.90
42187;DHT22;27858;51.414;0.018;2022-12-20T00:58:22;13.30;99.90
42187;DHT22;27858;51.414;0.018;2022-12-20T01:00:50;13.20;99.90
42187;DHT22;27858;51.414;0.018;2022-12-20T01:03:23;13.00;99.90
42187;DHT22;27858;51.414;0.018;2022-12-20T01:08:22;13.50;99.90
42187;DHT22;27858;51.414;0.018;2022-12-20T01:11:05;13.00;99.90
42187;DHT22;27858;51.414;0.018;2022-12-20T01:13:34;13.00;99.90
42187;DHT22;27858;51.414;0.018;2022-12-20T01:16:17;13.50;99.90
42187;DHT22;27858;51.414;0.018;2022-12-20T01:18:45;13.40;99.90
42187;DHT22;27858;51.414;0.018;2022-12-20T01:21:14;13.60;99.90
42187;DHT22;27858;51.414;0.018;2022-12-20T01:23:41;13.00;99.90
42187;DHT22;27858;51.414;0.018;2022-12-20T01:26:11;13.10;99.90
42187;DHT22;27858;51.414;0.018;2022-12-20T01:28:40;13.00;99.90
42187;DHT22;27858;51.414;0.018;2022-12-20T01:31:09;13.00;99.90
42187;DHT22;27858;51.414;0.018;2022-12-20T01:33:36;13.50;99.90
42187;DHT22;27858;51.414;0.018;2022-12-20T01:36:07;13.50;99.90
42187;DHT22;27858;51.414;0.018;2022-12-20T01:38:34;13.00;99.90
42187;DHT22;27858;51.414;0.018;2022-12-20T01:41:01;12.90;99.90
42187;DHT22;27858;51.414;0.018;2022-12-20T01:43:49;13.20;99.90
42187;DHT22;27858;51.414;0.018;2022-12-20T01:46:17;13.00;99.90
42187;DHT22;27858;51.414;0.018;2022-12-20T01:51:43;13.00;99.90
42187;DHT22;27858;51.414;0.018;2022-12-20T01:54:16;13.60;99.90
42187;DHT22;27858;51.414;0.018;2022-12-20T01:56:52;13.30;99.90
42187;DHT22;27858;51.414;0.018;2022-12-20T01:59:19;13.30;99.90
42187;DHT22;27858;51.414;0.018;2022-12-20T02:01:46;13.50;99.90
42187;DHT22;27858;51.414;0.018;2022-12-20T02:04:13;13.10;99.90
42187;DHT22;27858;51.414;0.018;2022-12-20T02:06:40;13.60;99.90
42187;DHT22;27858;51.414;0.018;2022-12-20T02:09:07;13.30;99.90
42187;DHT22;27858;51.414;0.018;2022-12-20T02:17:02;13.60;99.90
42187;DHT22;27858;51.414;0.018;2022-12-20T02:31:04;13.50;99.90
42187;DHT22;27858;51.414;0.018;2022-12-20T02:33:33;13.30;99.90
42187;DHT22;27858;51.414;0.018;2022-12-20T02:36:02;13.10;99.90
42187;DHT22;27858;51.414;0.018;2022-12-20T02:38:35;13.60;99.90
42187;DHT22;27858;51.414;0.018;2022-12-20T02:43:41;13.10;99.90
42187;DHT22;27858;51.414;0.018;2022-12-20T02:46:27;13.60;99.90
42187;DHT22;27858;51.414;0.018;2022-12-20T02:48:58;13.30;99.90
42187;DHT22;27858;51.414;0.018;2022-12-20T02:51:27;13.60;99.90
42187;DHT22;27858;51.414;0.018;2022-12-20T02:53:57;13.00;99.90
42187;DHT22;27858;51.414;0.018;2022-12-20T02:59:08;12.90;99.90
42187;DHT22;27858;51.414;0.018;2022-12-20T03:01:46;13.20;99.90
42187;DHT22;27858;51.414;0.018;2022-12-20T03:04:16;13.00;99.90
42187;DHT22;27858;51.414;0.018;2022-12-20T03:07:04;13.10;99.90
42187;DHT22;27858;51.414;0.018;2022-12-20T03:09:34;13.10;99.90
42187;DHT22;27858;51.414;0.018;2022-12-20T03:12:02;12.90;99.90
42187;DHT22;27858;51.414;0.018;2022-12-20T03:14:29;13.50;99.90
42187;DHT22;27858;51.414;0.018;2022-12-20T03:16:56;12.80;99.90
42187;DHT22;27858;51.414;0.018;2022-12-20T03:19:24;12.90;99.90
42187;DHT22;27858;51.414;0.018;2022-12-20T03:21:51;13.00;99.90
42187;DHT22;27858;51.414;0.018;2022-12-20T03:24:17;13.50;99.90
42187;DHT22;27858;51.414;0.018;2022-12-20T03:26:44;13.40;99.90
42187;DHT22;27858;51.414;0.018;2022-12-20T03:29:11;13.00;99.90
42187;DHT22;27858;51.414;0.018;2022-12-20T03:31:38;13.40;99.90
42187;DHT22;27858;51.414;0.018;2022-12-20T03:34:05;12.80;99.90
42187;DHT22;27858;51.414;0.018;2022-12-20T03:36:31;13.40;99.90
42187;DHT22;27858;51.414;0.018;2022-12-20T03:38:58;13.10;99.90
42187;DHT22;27858;51.414;0.018;2022-12-20T03:41:25;13.10;99.90
42187;DHT22;27858;51.414;0.018;2022-12-20T03:43:52;13.40;99.90
42187;DHT22;27858;51.414;0.018;2022-12-20T03:46:19;13.30;99.90
42187;DHT22;27858;51.414;0.018;2022-12-20T03:48:45;12.90;99.90
42187;DHT22;27858;51.414;0.018;2022-12-20T03:51:12;12.90;99.90
42187;DHT22;27858;51.414;0.018;2022-12-20T03:53:39;13.00;99.90
42187;DHT22;27858;51.414;0.018;2022-12-20T03:56:06;13.30;99.90
42187;DHT22;27858;51.414;0.018;2022-12-20T03:58:32;13.20;99.90
42187;DHT22;27858;51.414;0.018;2022-12-20T04:00:59;13.00;99.90
42187;DHT22;27858;51.414;0.018;2022-12-20T04:03:26;13.20;99.90
42187;DHT22;27858;51.414;0.018;2022-12-20T04:05:53;13.40;99.90
42187;DHT22;27858;51.414;0.018;2022-12-20T04:08:20;12.90;99.90
42187;DHT22;27858;51.414;0.018;2022-12-20T04:10:46;13.30;99.90
42187;DHT22;27858;51.414;0.018;2022-12-20T04:13:51;13.20;99.90
42187;DHT22;27858;51.414;0.018;2022-12-20T04:16:24;13.00;99.90
42187;DHT22;27858;51.414;0.018;2022-12-20T04:18:51;13.40;99.90
42187;DHT22;27858;51.414;0.018;2022-12-20T04:21:29;12.90;99.90
42187;DHT22;27858;51.414;0.018;2022-12-20T04:23:57;13.00;99.90
42187;DHT22;27858;51.414;0.018;2022-12-20T04:26:24;13.30;99.90
42187;DHT22;27858;51.414;0.018;2022-12-20T04:28:51;13.20;99.90
42187;DHT22;27858;51.414;0.018;2022-12-20T04:31:18;13.00;99.90
42187;DHT22;27858;51.414;0.018;2022-12-20T04:33:49;13.00;99.90
42187;DHT22;27858;51.414;0.018;2022-12-20T04:36:16;12.70;99.90
42187;DHT22;27858;51.414;0.018;2022-12-20T04:38:45;12.60;99.90
42187;DHT22;27858;51.414;0.018;2022-12-20T04:41:12;12.70;99.90
42187;DHT22;27858;51.414;0.018;2022-12-20T04:43:52;13.20;99.90
42187;DHT22;27858;51.414;0.018;2022-12-20T04:46:21;12.70;99.90
42187;DHT22;27858;51.414;0.018;2022-12-20T04:48:49;12.80;99.90
42187;DHT22;27858;51.414;0.018;2022-12-20T04:51:26;13.20;99.90
42187;DHT22;27858;51.414;0.018;2022-12-20T04:53:53;12.70;99.90
42187;DHT22;27858;51.414;0.018;2022-12-20T04:56:26;13.20;99.90
42187;DHT22;27858;51.414;0.018;2022-12-20T04:58:55;12.70;99.90
42187;DHT22;27858;51.414;0.018;2022-12-20T05:01:22;13.00;99.90
42187;DHT22;27858;51.414;0.018;2022-12-20T05:03:50;12.90;99.90
42187;DHT22;27858;51.414;0.018;2022-12-20T05:06:17;12.80;99.90
42187;DHT22;27858;51.414;0.018;2022-12-20T05:08:44;13.00;99.90
42187;DHT22;27858;51.414;0.018;2022-12-20T05:11:11;13.00;99.90
42187;DHT22;27858;51.414;0.018;2022-12-20T05:13:37;13.20;99.90
42187;DHT22;27858;51.414;0.018;2022-12-20T05:16:04;13.30;99.90
42187;DHT22;27858;51.414;0.018;2022-12-20T05:18:31;12.90;99.90
42187;DHT22;27858;51.414;0.018;2022-12-20T05:20:59;13.30;99.90
42187;DHT22;27858;51.414;0.018;2022-12-20T05:23:44;12.80;99.90
42187;DHT22;27858;51.414;0.018;2022-12-20T05:26:33;13.10;99.90
42187;DHT22;27858;51.414;0.018;2022-12-20T05:29:00;12.90;99.90
42187;DHT22;27858;51.414;0.018;2022-12-20T05:31:27;12.90;99.90
42187;DHT22;27858;51.414;0.018;2022-12-20T05:33:54;13.00;99.90
42187;DHT22;27858;51.414;0.018;2022-12-20T05:36:20;13.00;99.90
42187;DHT22;27858;51.414;0.018;2022-12-20T05:38:47;13.20;99.90
42187;DHT22;27858;51.414;0.018;2022-12-20T05:41:14;12.80;99.90
42187;DHT22;27858;51.414;0.018;2022-12-20T05:43:41;13.10;99.90
42187;DHT22;27858;51.414;0.018;2022-12-20T05:46:09;12.80;99.90
42187;DHT22;27858;51.414;0.018;2022-12-20T05:48:36;13.20;99.90
42187;DHT22;27858;51.414;0.018;2022-12-20T05:51:03;13.10;99.90
42187;DHT22;27858;51.414;0.018;2022-12-20T05:53:30;13.10;99.90
42187;DHT22;27858;51.414;0.018;2022-12-20T05:55:57;13.20;99.90
42187;DHT22;27858;51.414;0.018;2022-12-20T05:58:24;13.00;99.90
42187;DHT22;27858;51.414;0.018;2022-12-20T06:00:51;12.90;99.90
42187;DHT22;27858;51.414;0.018;2022-12-20T06:03:18;13.30;99.90
42187;DHT22;27858;51.414;0.018;2022-12-20T06:05:45;12.80;99.90
42187;DHT22;27858;51.414;0.018;2022-12-20T06:08:12;12.70;99.90
42187;DHT22;27858;51.414;0.018;2022-12-20T06:10:40;13.00;99.90
42187;DHT22;27858;51.414;0.018;2022-12-20T06:13:08;12.80;99.90
42187;DHT22;27858;51.414;0.018;2022-12-20T06:15:36;12.90;99.90
42187;DHT22;27858;51.414;0.018;2022-12-20T06:18:04;13.00;99.90
42187;DHT22;27858;51.414;0.018;2022-12-20T06:20:32;12.90;99.90
42187;DHT22;27858;51.414;0.018;2022-12-20T06:23:00;12.80;99.90
42187;DHT22;27858;51.414;0.018;2022-12-20T06:25:27;13.30;99.90
42187;DHT22;27858;51.414;0.018;2022-12-20T06:27:54;13.10;99.90
42187;DHT22;27858;51.414;0.018;2022-12-20T06:30:22;13.30;99.90
42187;DHT22;27858;51.414;0.018;2022-12-20T06:32:54;13.00;99.90
42187;DHT22;27858;51.414;0.018;2022-12-20T06:35:21;13.40;99.90
42187;DHT22;27858;51.414;0.018;2022-12-20T06:37:47;13.30;99.90
42187;DHT22;27858;51.414;0.018;2022-12-20T06:40:14;12.90;99.90
42187;DHT22;27858;51.414;0.018;2022-12-20T06:42:41;13.30;99.90
42187;DHT22;27858;51.414;0.018;2022-12-20T06:45:08;13.10;99.90
42187;DHT22;27858;51.414;0.018;2022-12-20T06:47:35;13.10;99.90
42187;DHT22;27858;51.414;0.018;2022-12-20T06:50:03;13.20;99.90
42187;DHT22;27858;51.414;0.018;2022-12-20T06:52:31;12.90;99.90
42187;DHT22;27858;51.414;0.018;2022-12-20T06:54:57;13.20;99.90
42187;DHT22;27858;51.414;0.018;2022-12-20T06:57:24;13.20;99.90
42187;DHT22;27858;51.414;0.018;2022-12-20T06:59:52;12.80;99.90
42187;DHT22;27858;51.414;0.018;2022-12-20T07:02:18;13.10;99.90
42187;DHT22;27858;51.414;0.018;2022-12-20T07:04:45;13.20;99.90
42187;DHT22;27858;51.414;0.018;2022-12-20T07:07:12;13.20;99.90
42187;DHT22;27858;51.414;0.018;2022-12-20T07:09:39;13.10;99.90
42187;DHT22;27858;51.414;0.018;2022-12-20T07:12:08;13.20;99.90
42187;DHT22;27858;51.414;0.018;2022-12-20T07:14:35;13.00;99.90
42187;DHT22;27858;51.414;0.018;2022-12-20T07:17:03;12.50;99.90
42187;DHT22;27858;51.414;0.018;2022-12-20T07:19:30;12.50;99.90
42187;DHT22;27858;51.414;0.018;2022-12-20T07:21:58;12.40;99.90
42187;DHT22;27858;51.414;0.018;2022-12-20T07:24:25;12.40;99.90
42187;DHT22;27858;51.414;0.018;2022-12-20T07:26:51;12.30;99.90
42187;DHT22;27858;51.414;0.018;2022-12-20T07:29:18;11.90;99.90
42187;DHT22;27858;51.414;0.018;2022-12-20T07:31:45;11.90;99.90
42187;DHT22;27858;51.414;0.018;2022-12-20T07:34:12;12.00;99.90
42187;DHT22;27858;51.414;0.018;2022-12-20T07:36:39;11.80;99.90
42187;DHT22;27858;51.414;0.018;2022-12-20T07:39:06;11.60;99.90
42187;DHT22;27858;51.414;0.018;2022-12-20T07:41:32;11.70;99.90
42187;DHT22;27858;51.414;0.018;2022-12-20T07:43:59;11.50;99.90
42187;DHT22;27858;51.414;0.018;2022-12-20T07:46:26;11.70;99.90
42187;DHT22;27858;51.414;0.018;2022-12-20T07:48:54;11.80;99.90
42187;DHT22;27858;51.414;0.018;2022-12-20T07:51:30;11.60;99.90
42187;DHT22;27858;51.414;0.018;2022-12-20T07:54:08;11.30;99.90
42187;DHT22;27858;51.414;0.018;2022-12-20T07:56:40;11.60;99.90
42187;DHT22;27858;51.414;0.018;2022-12-20T07:59:10;11.20;99.90
42187;DHT22;27858;51.414;0.018;2022-12-20T08:01:42;11.50;99.90
42187;DHT22;27858;51.414;0.018;2022-12-20T08:04:13;11.20;99.90
42187;DHT22;27858;51.414;0.018;2022-12-20T08:06:41;11.50;99.90
42187;DHT22;27858;51.414;0.018;2022-12-20T08:09:10;11.10;99.90
42187;DHT22;27858;51.414;0.018;2022-12-20T08:11:42;11.30;99.90
42187;DHT22;27858;51.414;0.018;2022-12-20T08:14:10;11.40;99.90
42187;DHT22;27858;51.414;0.018;2022-12-20T08:16:37;11.40;99.90
42187;DHT22;27858;51.414;0.018;2022-12-20T08:19:04;11.00;99.90
42187;DHT22;27858;51.414;0.018;2022-12-20T08:21:31;11.20;99.90
42187;DHT22;27858;51.414;0.018;2022-12-20T08:23:58;11.30;99.90
42187;DHT22;27858;51.414;0.018;2022-12-20T08:26:24;10.90;99.90
42187;DHT22;27858;51.414;0.018;2022-12-20T08:28:52;10.90;99.90
42187;DHT22;27858;51.414;0.018;2022-12-20T08:31:19;11.00;99.90
42187;DHT22;27858;51.414;0.018;2022-12-20T08:33:46;11.20;99.90
42187;DHT22;27858;51.414;0.018;2022-12-20T08:36:13;10.90;99.90
42187;DHT22;27858;51.414;0.018;2022-12-20T08:38:40;11.00;99.90
42187;DHT22;27858;51.414;0.018;2022-12-20T08:41:14;11.10;99.90
42187;DHT22;27858;51.414;0.018;2022-12-20T08:43:42;10.90;99.90
42187;DHT22;27858;51.414;0.018;2022-12-20T08:46:09;10.80;99.90
42187;DHT22;27858;51.414;0.018;2022-12-20T08:48:38;10.90;99.90
42187;DHT22;27858;51.414;0.018;2022-12-20T08:51:07;11.00;99.90
42187;DHT22;27858;51.414;0.018;2022-12-20T08:53:35;10.80;99.90
42187;DHT22;27858;51.414;0.018;2022-12-20T08:56:13;10.80;99.90
42187;DHT22;27858;51.414;0.018;2022-12-20T08:58:42;10.90;99.90
42187;DHT22;27858;51.414;0.018;2022-12-20T09:01:13;10.80;99.90
42187;DHT22;27858;51.414;0.018;2022-12-20T09:03:41;10.60;99.90
42187;DHT22;27858;51.414;0.018;2022-12-20T09:06:10;10.70;99.90
42187;DHT22;27858;51.414;0.018;2022-12-20T09:08:38;10.60;99.90
42187;DHT22;27858;51.414;0.018;2022-12-20T09:11:08;10.60;99.90
42187;DHT22;27858;51.414;0.018;2022-12-20T09:13:35;10.50;99.90
42187;DHT22;27858;51.414;0.018;2022-12-20T09:16:10;10.40;99.90
42187;DHT22;27858;51.414;0.018;2022-12-20T09:18:37;10.40;99.90
42187;DHT22;27858;51.414;0.018;2022-12-20T09:21:06;10.40;99.90
42187;DHT22;27858;51.414;0.018;2022-12-20T09:23:34;10.30;99.90
42187;DHT22;27858;51.414;0.018;2022-12-20T09:26:20;10.40;99.90
42187;DHT22;27858;51.414;0.018;2022-12-20T09:28:48;10.30;99.90
42187;DHT22;27858;51.414;0.018;2022-12-20T09:31:22;10.20;99.90
42187;DHT22;27858;51.414;0.018;2022-12-20T09:33:52;10.30;99.90
42187;DHT22;27858;51.414;0.018;2022-12-20T09:36:20;10.20;99.90
42187;DHT22;27858;51.414;0.018;2022-12-20T09:38:48;10.20;99.90
42187;DHT22;27858;51.414;0.018;2022-12-20T09:41:21;10.20;99.90
42187;DHT22;27858;51.414;0.018;2022-12-20T09:43:50;10.20;99.90
42187;DHT22;27858;51.414;0.018;2022-12-20T09:46:17;10.10;99.90
42187;DHT22;27858;51.414;0.018;2022-12-20T09:48:45;10.20;99.90
42187;DHT22;27858;51.414;0.018;2022-12-20T09:56:29;10.20;99.90
42187;DHT22;27858;51.414;0.018;2022-12-20T10:01:31;10.20;99.90
42187;DHT22;27858;51.414;0.018;2022-12-20T10:04:11;10.00;99.90
42187;DHT22;27858;51.414;0.018;2022-12-20T10:15:20;10.10;99.90
42187;DHT22;27858;51.414;0.018;2022-12-20T10:23:18;10.20;99.90
42187;DHT22;27858;51.414;0.018;2022-12-20T10:25:58;10.10;99.90
42187;DHT22;27858;51.414;0.018;2022-12-20T10:28:30;10.10;99.90
42187;DHT22;27858;51.414;0.018;2022-12-20T10:31:05;10.10;99.90
42187;DHT22;27858;51.414;0.018;2022-12-20T10:33:33;10.10;99.90
42187;DHT22;27858;51.414;0.018;2022-12-20T10:38:51;10.10;99.90
42187;DHT22;27858;51.414;0.018;2022-12-20T10:41:24;10.10;99.90
42187;DHT22;27858;51.414;0.018;2022-12-20T10:44:14;10.20;99.90
42187;DHT22;27858;51.414;0.018;2022-12-20T10:46:45;10.30;99.90
42187;DHT22;27858;51.414;0.018;2022-12-20T10:49:39;10.20;99.90
42187;DHT22;27858;51.414;0.018;2022-12-20T10:57:03;10.30;99.90
42187;DHT22;27858;51.414;0.018;2022-12-20T10:59:44;10.40;99.90
42187;DHT22;27858;51.414;0.018;2022-12-20T11:07:39;10.40;99.90
42187;DHT22;27858;51.414;0.018;2022-12-20T11:10:36;10.40;99.90
42187;DHT22;27858;51.414;0.018;2022-12-20T11:13:10;10.30;99.90
42187;DHT22;27858;51.414;0.018;2022-12-20T11:15:48;10.40;99.90
42187;DHT22;27858;51.414;0.018;2022-12-20T11:18:23;10.40;99.90
42187;DHT22;27858;51.414;0.018;2022-12-20T11:24:20;10.40;99.90
42187;DHT22;27858;51.414;0.018;2022-12-20T11:27:10;10.50;99.90
42187;DHT22;27858;51.414;0.018;2022-12-20T11:30:01;10.50;99.90
42187;DHT22;27858;51.414;0.018;2022-12-20T11:33:07;10.60;99.90
42187;DHT22;27858;51.414;0.018;2022-12-20T11:35:49;10.60;99.90
42187;DHT22;27858;51.414;0.018;2022-12-20T11:38:40;10.60;99.90
42187;DHT22;27858;51.414;0.018;2022-12-20T11:41:27;10.60;99.90
42187;DHT22;27858;51.414;0.018;2022-12-20T11:47:00;10.70;99.90
42187;DHT22;27858;51.414;0.018;2022-12-20T11:52:45;10.70;99.90
42187;DHT22;27858;51.414;0.018;2022-12-20T11:55:32;10.70;97.50
42187;DHT22;27858;51.414;0.018;2022-12-20T12:06:15;10.80;92.00
42187;DHT22;27858;51.414;0.018;2022-12-20T12:08:48;10.80;81.00
42187;DHT22;27858;51.414;0.018;2022-12-20T12:11:24;10.90;93.00
42187;DHT22;27858;51.414;0.018;2022-12-20T12:14:27;10.80;71.50
42187;DHT22;27858;51.414;0.018;2022-12-20T12:16:58;10.90;62.90
42187;DHT22;27858;51.414;0.018;2022-12-20T12:19:28;10.80;48.80
42187;DHT22;27858;51.414;0.018;2022-12-20T12:22:01;10.90;57.60
42187;DHT22;27858;51.414;0.018;2022-12-20T12:24:36;10.90;77.50
42187;DHT22;27858;51.414;0.018;2022-12-20T12:27:06;10.80;66.90
42187;DHT22;27858;51.414;0.018;2022-12-20T12:29:41;10.90;42.30
42187;DHT22;27858;51.414;0.018;2022-12-20T12:32:40;10.90;23.00
42187;DHT22;27858;51.414;0.018;2022-12-20T12:38:00;10.90;20.40
42187;DHT22;27858;51.414;0.018;2022-12-20T12:46:13;10.90;8.70
42187;DHT22;27858;51.414;0.018;2022-12-20T12:48:56;10.90;6.80
42187;DHT22;27858;51.414;0.018;2022-12-20T12:51:28;11.00;6.90
42187;DHT22;27858;51.414;0.018;2022-12-20T12:56:44;10.90;1.00
42187;DHT22;27858;51.414;0.018;2022-12-20T13:17:56;11.10;1.00
42187;DHT22;27858;51.414;0.018;2022-12-20T13:20:26;11.10;1.00
42187;DHT22;27858;51.414;0.018;2022-12-20T13:25:43;11.10;1.00
42187;DHT22;27858;51.414;0.018;2022-12-20T13:33:48;11.10;1.00
42187;DHT22;27858;51.414;0.018;2022-12-20T13:41:50;11.20;1.00
42187;DHT22;27858;51.414;0.018;2022-12-20T13:44:34;11.20;1.00
42187;DHT22;27858;51.414;0.018;2022-12-20T13:47:18;11.20;1.00
42187;DHT22;27858;51.414;0.018;2022-12-20T13:49:48;11.20;1.00
42187;DHT22;27858;51.414;0.018;2022-12-20T13:54:44;11.70;1.00
42187;DHT22;27858;51.414;0.018;2022-12-20T13:57:38;11.70;1.00
42187;DHT22;27858;51.414;0.018;2022-12-20T14:00:23;11.90;1.00
42187;DHT22;27858;51.414;0.018;2022-12-20T14:02:52;12.00;1.00
42187;DHT22;27858;51.414;0.018;2022-12-20T14:05:24;11.90;1.00
42187;DHT22;27858;51.414;0.018;2022-12-20T14:08:07;11.90;1.00
42187;DHT22;27858;51.414;0.018;2022-12-20T14:10:34;11.90;1.00
42187;DHT22;27858;51.414;0.018;2022-12-20T14:13:02;12.00;1.00
42187;DHT22;27858;51.414;0.018;2022-12-20T14:15:34;12.00;1.00
42187;DHT22;27858;51.414;0.018;2022-12-20T14:18:25;12.00;1.00
42187;DHT22;27858;51.414;0.018;2022-12-20T14:20:55;12.00;1.00
42187;DHT22;27858;51.414;0.018;2022-12-20T14:23:26;12.00;1.00
42187;DHT22;27858;51.414;0.018;2022-12-20T14:25:56;11.90;1.00
42187;DHT22;27858;51.414;0.018;2022-12-20T14:31:19;11.80;1.00
42187;DHT22;27858;51.414;0.018;2022-12-20T14:33:47;11.80;1.00
42187;DHT22;27858;51.414;0.018;2022-12-20T14:36:19;11.80;1.00
42187;DHT22;27858;51.414;0.018;2022-12-20T14:38:50;11.90;1.00
42187;DHT22;27858;51.414;0.018;2022-12-20T14:41:39;11.80;1.00
42187;DHT22;27858;51.414;0.018;2022-12-20T14:46:34;11.70;1.00
42187;DHT22;27858;51.414;0.018;2022-12-20T14:49:20;11.70;1.00
42187;DHT22;27858;51.414;0.018;2022-12-20T14:51:48;11.50;1.00
42187;DHT22;27858;51.414;0.018;2022-12-20T14:54:21;11.40;1.00
42187;DHT22;27858;51.414;0.018;2022-12-20T14:57:31;11.30;1.00
42187;DHT22;27858;51.414;0.018;2022-12-20T15:00:22;11.30;1.00
42187;DHT22;27858;51.414;0.018;2022-12-20T15:08:19;11.10;1.00
42187;DHT22;27858;51.414;0.018;2022-12-20T15:13:36;10.90;1.00
42187;DHT22;27858;51.414;0.018;2022-12-20T15:16:16;10.80;1.00
42187;DHT22;27858;51.414;0.018;2022-12-20T15:18:50;10.80;1.00
42187;DHT22;27858;51.414;0.018;2022-12-20T15:21:33;10.70;1.00
42187;DHT22;27858;51.414;0.018;2022-12-20T15:24:05;10.70;1.00
42187;DHT22;27858;51.414;0.018;2022-12-20T15:26:34;10.60;1.00
42187;DHT22;27858;51.414;0.018;2022-12-20T15:29:01;10.50;1.00
42187;DHT22;27858;51.414;0.018;2022-12-20T15:31:28;10.40;1.00
42187;DHT22;27858;51.414;0.018;2022-12-20T15:34:02;10.50;1.00
42187;DHT22;27858;51.414;0.018;2022-12-20T15:36:30;10.40;1.00
42187;DHT22;27858;51.414;0.018;2022-12-20T15:38:57;10.40;1.00
42187;DHT22;27858;51.414;0.018;2022-12-20T15:41:44;10.30;1.00
42187;DHT22;27858;51.414;0.018;2022-12-20T15:44:14;10.20;1.00
42187;DHT22;27858;51.414;0.018;2022-12-20T15:46:41;10.20;1.00
42187;DHT22;27858;51.414;0.018;2022-12-20T15:49:15;10.20;1.00
42187;DHT22;27858;51.414;0.018;2022-12-20T15:51:43;10.10;1.00
42187;DHT22;27858;51.414;0.018;2022-12-20T15:54:30;10.00;1.00
42187;DHT22;27858;51.414;0.018;2022-12-20T15:57:00;10.00;1.00
42187;DHT22;27858;51.414;0.018;2022-12-20T15:59:30;10.00;2.70
42187;DHT22;27858;51.414;0.018;2022-12-20T16:02:27;9.90;1.00
42187;DHT22;27858;51.414;0.018;2022-12-20T16:04:55;9.80;5.60
42187;DHT22;27858;51.414;0.018;2022-12-20T16:07:23;9.80;14.70
42187;DHT22;27858;51.414;0.018;2022-12-20T16:09:50;9.70;22.00
42187;DHT22;27858;51.414;0.018;2022-12-20T16:12:22;9.60;22.20
42187;DHT22;27858;51.414;0.018;2022-12-20T16:14:50;9.70;33.50
42187;DHT22;27858;51.414;0.018;2022-12-20T16:17:17;9.60;42.30
42187;DHT22;27858;51.414;0.018;2022-12-20T16:19:45;9.50;45.80
42187;DHT22;27858;51.414;0.018;2022-12-20T16:22:16;9.50;55.40
42187;DHT22;27858;51.414;0.018;2022-12-20T16:24:44;9.40;66.40
42187;DHT22;27858;51.414;0.018;2022-12-20T16:27:10;9.40;75.10
42187;DHT22;27858;51.414;0.018;2022-12-20T16:29:37;9.40;81.50
42187;DHT22;27858;51.414;0.018;2022-12-20T16:32:16;9.40;84.20
42187;DHT22;27858;51.414;0.018;2022-12-20T16:34:44;9.30;73.90
42187;DHT22;27858;51.414;0.018;2022-12-20T16:37:11;9.40;74.30
42187;DHT22;27858;51.414;0.018;2022-12-20T16:39:38;9.30;70.90
42187;DHT22;27858;51.414;0.018;2022-12-20T16:42:15;9.30;58.50
42187;DHT22;27858;51.414;0.018;2022-12-20T16:44:42;9.20;56.20
42187;DHT22;27858;51.414;0.018;2022-12-20T16:47:12;9.20;64.40
42187;DHT22;27858;51.414;0.018;2022-12-20T16:49:40;9.20;59.60
42187;DHT22;27858;51.414;0.018;2022-12-20T16:52:17;9.20;60.90
42187;DHT22;27858;51.414;0.018;2022-12-20T16:54:44;9.20;57.80
42187;DHT22;27858;51.414;0.018;2022-12-20T16:57:10;9.10;59.60
42187;DHT22;27858;51.414;0.018;2022-12-20T16:59:37;9.10;58.30
42187;DHT22;27858;51.414;0.018;2022-12-20T17:02:31;9.10;64.70
42187;DHT22;27858;51.414;0.018;2022-12-20T17:04:59;9.00;82.80
42187;DHT22;27858;51.414;0.018;2022-12-20T17:07:26;9.00;93.60
42187;DHT22;27858;51.414;0.018;2022-12-20T17:09:53;9.10;96.70
42187;DHT22;27858;51.414;0.018;2022-12-20T17:12:21;9.00;98.80
42187;DHT22;27858;51.414;0.018;2022-12-20T17:14:48;9.00;99.90
42187;DHT22;27858;51.414;0.018;2022-12-20T17:17:15;8.90;99.90
42187;DHT22;27858;51.414;0.018;2022-12-20T17:19:43;8.90;99.90
42187;DHT22;27858;51.414;0.018;2022-12-20T17:22:11;8.80;99.90
42187;DHT22;27858;51.414;0.018;2022-12-20T17:24:55;8.90;99.90
42187;DHT22;27858;51.414;0.018;2022-12-20T17:27:22;8.80;99.90
42187;DHT22;27858;51.414;0.018;2022-12-20T17:29:49;8.90;99.90
42187;DHT22;27858;51.414;0.018;2022-12-20T17:32:21;8.70;99.90
42187;DHT22;27858;51.414;0.018;2022-12-20T17:34:49;8.70;99.90
42187;DHT22;27858;51.414;0.018;2022-12-20T17:37:16;8.60;99.90
42187;DHT22;27858;51.414;0.018;2022-12-20T17:39:43;8.60;99.90
42187;DHT22;27858;51.414;0.018;2022-12-20T17:42:13;8.60;99.90
42187;DHT22;27858;51.414;0.018;2022-12-20T17:44:41;8.50;99.90
42187;DHT22;27858;51.414;0.018;2022-12-20T17:47:08;8.50;99.90
42187;DHT22;27858;51.414;0.018;2022-12-20T17:49:34;8.50;99.90
42187;DHT22;27858;51.414;0.018;2022-12-20T17:52:02;8.40;99.90
42187;DHT22;27858;51.414;0.018;2022-12-20T17:54:28;8.40;99.90
42187;DHT22;27858;51.414;0.018;2022-12-20T17:57:09;8.40;99.90
42187;DHT22;27858;51.414;0.018;2022-12-20T17:59:37;8.30;99.90
42187;DHT22;27858;51.414;0.018;2022-12-20T18:02:22;8.30;99.90
42187;DHT22;27858;51.414;0.018;2022-12-20T18:04:50;8.30;99.90
42187;DHT22;27858;51.414;0.018;2022-12-20T18:07:17;8.30;99.90
42187;DHT22;27858;51.414;0.018;2022-12-20T18:09:46;8.20;99.90
42187;DHT22;27858;51.414;0.018;2022-12-20T18:12:13;8.20;99.90
42187;DHT22;27858;51.414;0.018;2022-12-20T18:14:40;8.20;99.90
42187;DHT22;27858;51.414;0.018;2022-12-20T18:17:07;8.20;99.90
42187;DHT22;27858;51.414;0.018;2022-12-20T18:19:34;8.20;99.90